Aviation Digital Data Service (ADDS)

Output produced by METARs form (1311 UTC 19 January 2019)
found at http://www.aviationweather.gov/metar/data/
 
Forecast for: DXXX (LOME/TOKOIN (MIL, TG)
Text: TAF DXXX 191100Z 1912/2018 20014KT 9999 FEW015
Forecast period: 1200 to 2200 UTC 19 January 2019
Forecast type: FROM: standard forecast or significant change
Winds: from the SSW (200 degrees) at 16 MPH (14 knots; 7.2 m/s)
Visibility: 6 or more miles 10+ km)
Ceiling: at least 12,000 feet AGL
Clouds: few clouds at 1500 feet AGL
Weather: no significant weather forecast for this period
Text: PROB30
Forecast period: 1400 to 2000 UTC 19 January 2019
Forecast type: TEMPORARY: The following changes expected for less than half the time period
Visibility: missing
Ceiling: 1400 feet AGL
Clouds: broken clouds at 1400 feet AGL
few clouds at 2000 feet AGL
Weather: TS  (thunderstorm)
Text: TEMPO 1914/1920 TS BKN014 FEW020CB
Forecast period: 2200 UTC 19 January 2019 to 1800 UTC 20 January 2019
Forecast type: BECOMING: Conditions expected to become as follows by 0000 UTC 20 January 2019
Winds: from the W (260 degrees) at 6 MPH (5 knots; 2.6 m/s)
Visibility: 6 or more miles 10+ km)
Ceiling: at least 12,000 feet AGL
Clouds: few clouds at 1500 feet AGL
Weather: no significant weather forecast for this period